Time;durP1;ratioP1;P1;durP2;ratioP2;P2;SDS_P1;SDS_P2;PMS_P1;PMS_P2;Temp;Humidity;BMP_temperature;BMP_pressure;BME280_temperature;BME280_humidity;BME280_pressure;Samples;Min_cycle;Max_cycle;Signal;HPM_P1;HPM_P2
2023/10/30 00:02:12;;;;;;;;;2.00;2.00;;;;;15.04;69.21;99463.88;5058145;28;74570;-68
2023/10/30 00:04:38;;;;;;;;;3.25;2.00;;;;;15.04;69.42;99463.88;5055550;28;69378;-68
2023/10/30 00:07:03;;;;;;;;;6.75;4.50;;;;;15.00;69.29;99469.34;5040961;28;45426;-68
2023/10/30 00:09:29;;;;;;;;;6.50;1.00;;;;;14.98;69.33;99458.06;5063015;28;71942;-68
2023/10/30 00:11:54;;;;;;;;;37.25;26.00;;;;;14.94;69.48;99451.31;5058824;28;46918;-68
2023/10/30 00:14:20;;;;;;;;;11.50;7.25;;;;;14.91;69.56;99453.28;5045827;28;45371;-67
2023/10/30 00:16:45;;;;;;;;;7.50;2.00;;;;;14.87;69.55;99455.25;5055671;28;45501;-68
2023/10/30 00:19:10;;;;;;;;;2.25;1.00;;;;;14.84;69.27;99458.13;5039243;28;72146;-67
2023/10/30 00:21:36;;;;;;;;;1.75;1.00;;;;;14.83;69.82;99466.97;5060998;28;74495;-67
2023/10/30 00:24:02;;;;;;;;;1.75;1.00;;;;;14.79;69.86;99468.13;5062292;28;45253;-67
2023/10/30 00:26:29;;;;;;;;;6.00;2.00;;;;;14.76;69.76;99469.13;5045576;28;45217;-67
2023/10/30 00:28:54;;;;;;;;;4.00;1.25;;;;;14.75;69.87;99463.97;5048822;28;45656;-67
2023/10/30 00:31:20;;;;;;;;;2.25;2.00;;;;;14.71;69.79;99463.31;5041666;28;46059;-68
2023/10/30 00:33:45;;;;;;;;;3.25;2.00;;;;;14.68;70.08;99462.66;5071770;28;71953;-67
2023/10/30 00:36:10;;;;;;;;;4.25;1.50;;;;;14.65;69.93;99463.72;5047311;28;45502;-68
2023/10/30 00:38:35;;;;;;;;;2.75;1.00;;;;;14.65;69.76;99460.25;5071067;28;70307;-67
2023/10/30 00:41:01;;;;;;;;;2.25;2.00;;;;;14.61;70.07;99451.72;5064544;28;75614;-67
2023/10/30 00:43:26;;;;;;;;;49.25;36.25;;;;;14.61;69.75;99454.34;5045762;28;73337;-67
2023/10/30 00:45:51;;;;;;;;;18.00;9.50;;;;;14.60;70.00;99456.13;5062995;28;58251;-68
2023/10/30 00:48:17;;;;;;;;;3.75;1.50;;;;;14.58;70.00;99449.28;5060447;28;72831;-68
2023/10/30 00:50:42;;;;;;;;;3.25;1.00;;;;;14.58;69.96;99451.91;5043423;28;45450;-68
2023/10/30 00:53:08;;;;;;;;;2.00;1.00;;;;;14.54;70.05;99447.75;5044427;28;45374;-68
2023/10/30 00:55:38;;;;;;;;;0.00;0.00;;;;;14.53;70.06;99444.25;5064101;28;54755;-67
2023/10/30 00:58:07;;;;;;;;;3.50;0.50;;;;;14.54;70.36;99445.13;5068275;28;45593;-67
2023/10/30 01:00:32;;;;;;;;;2.75;1.00;;;;;14.52;70.22;99441.72;5051083;28;46204;-67
2023/10/30 01:02:58;;;;;;;;;2.50;1.50;;;;;14.51;70.19;99447.94;5060994;28;45448;-68
2023/10/30 01:05:23;;;;;;;;;4.75;0.75;;;;;14.50;70.30;99447.09;5034275;28;67951;-67
2023/10/30 01:07:48;;;;;;;;;6.00;1.75;;;;;14.49;70.21;99448.03;5031429;28;62405;-68
2023/10/30 01:10:14;;;;;;;;;3.25;1.00;;;;;14.49;70.33;99450.69;5046010;28;74595;-69
2023/10/30 01:12:39;;;;;;;;;2.00;1.00;;;;;14.48;70.20;99446.34;5042898;28;72038;-68
2023/10/30 01:15:05;;;;;;;;;3.00;1.00;;;;;14.50;70.19;99446.25;5043008;28;68411;-67
2023/10/30 01:17:30;;;;;;;;;2.75;1.75;;;;;14.46;70.40;99436.88;5047918;28;45509;-67
2023/10/30 01:19:55;;;;;;;;;4.00;0.75;;;;;14.47;70.32;99435.94;5033120;28;60939;-67
2023/10/30 01:22:21;;;;;;;;;3.50;2.00;;;;;14.42;70.30;99426.53;5048374;28;72588;-67
2023/10/30 01:24:46;;;;;;;;;0.50;0.50;;;;;14.45;70.37;99438.66;5027968;28;58757;-67
2023/10/30 01:27:11;;;;;;;;;64.25;46.25;;;;;14.43;70.29;99430.03;5026333;28;45680;-67
2023/10/30 01:29:37;;;;;;;;;34.00;31.50;;;;;14.43;70.57;99425.59;5063038;28;74398;-67
2023/10/30 01:32:02;;;;;;;;;3.00;2.00;;;;;14.42;70.42;99423.88;5037776;28;53822;-67
2023/10/30 01:34:28;;;;;;;;;4.25;1.00;;;;;14.41;70.17;99419.59;5040483;28;45489;-67
2023/10/30 01:36:53;;;;;;;;;1.00;1.00;;;;;14.38;70.29;99414.50;5040001;28;49360;-67
2023/10/30 01:39:18;;;;;;;;;3.00;1.00;;;;;14.37;70.19;99423.34;5069994;28;45336;-67
2023/10/30 01:41:43;;;;;;;;;4.75;1.75;;;;;14.35;70.55;99419.13;5059242;28;72439;-68
2023/10/30 01:44:09;;;;;;;;;2.00;1.00;;;;;14.30;70.22;99418.56;5044118;28;69224;-67
2023/10/30 01:46:34;;;;;;;;;2.25;1.00;;;;;14.27;70.40;99422.25;5066224;28;45517;-67
2023/10/30 01:49:00;;;;;;;;;0.50;0.50;;;;;14.22;70.78;99417.28;5045406;28;74399;-66
2023/10/30 01:51:26;;;;;;;;;2.00;1.00;;;;;14.18;70.53;99417.56;5059524;28;53195;-67
2023/10/30 01:53:52;;;;;;;;;6.75;2.00;;;;;14.17;70.44;99416.72;5042786;28;45386;-68
2023/10/30 01:56:18;;;;;;;;;1.00;0.00;;;;;14.16;70.76;99416.81;5045200;28;45354;-68
2023/10/30 01:58:44;;;;;;;;;1.00;1.00;;;;;14.11;71.02;99409.22;5044970;28;47128;-68
2023/10/30 02:01:09;;;;;;;;;1.75;1.00;;;;;14.10;70.92;99410.16;5044143;28;45485;-68
2023/10/30 02:03:34;;;;;;;;;2.25;1.00;;;;;14.09;70.94;99404.97;5044715;28;45444;-68
2023/10/30 02:06:00;;;;;;;;;1.50;0.50;;;;;14.06;71.10;99403.41;5058017;28;72736;-68
2023/10/30 02:08:25;;;;;;;;;4.00;0.00;;;;;14.05;71.12;99401.69;5059351;28;74929;-67
2023/10/30 02:10:51;;;;;;;;;3.75;1.00;;;;;14.02;71.05;99400.13;5048052;28;45422;-67
2023/10/30 02:13:17;;;;;;;;;3.00;1.00;;;;;14.00;70.83;99404.59;5059714;28;45514;-68
2023/10/30 02:15:42;;;;;;;;;2.50;1.00;;;;;14.00;70.95;99401.97;5061595;28;45579;-67
2023/10/30 02:18:07;;;;;;;;;3.25;1.00;;;;;13.98;71.38;99398.59;5040934;28;71589;-67
2023/10/30 02:20:33;;;;;;;;;18.00;15.50;;;;;13.95;71.06;99400.59;5041684;28;45304;-67
2023/10/30 02:22:59;;;;;;;;;2.00;2.00;;;;;13.94;70.82;99404.19;5059672;28;45206;-66
2023/10/30 02:25:25;;;;;;;;;3.25;1.75;;;;;13.93;70.93;99400.69;5060044;28;65470;-67
2023/10/30 02:27:51;;;;;;;;;1.25;1.00;;;;;13.92;70.92;99400.81;5042032;28;45187;-67
2023/10/30 02:30:16;;;;;;;;;1.00;0.75;;;;;13.91;71.18;99405.19;5045701;28;45941;-67
2023/10/30 02:32:44;;;;;;;;;5.50;1.00;;;;;13.90;71.01;99395.63;5047073;28;45491;-67
2023/10/30 02:35:18;;;;;;;;;5.00;1.00;;;;;13.87;71.28;99395.81;5038703;28;45324;-67
2023/10/30 02:37:44;;;;;;;;;3.75;1.00;;;;;13.86;71.21;99399.38;5040265;28;46181;-67
2023/10/30 02:40:10;;;;;;;;;2.50;2.00;;;;;13.85;71.12;99398.53;5046118;28;45390;-66
2023/10/30 02:42:37;;;;;;;;;3.00;0.75;;;;;13.84;71.52;99394.19;5078178;27;45554;-67
2023/10/30 02:45:03;;;;;;;;;4.00;1.00;;;;;13.84;71.41;99390.75;5060164;28;47249;-67
2023/10/30 02:47:29;;;;;;;;;4.00;1.00;;;;;13.82;71.11;99382.94;5046483;28;47006;-66
2023/10/30 02:49:55;;;;;;;;;1.25;1.00;;;;;13.80;71.70;99382.19;5036511;28;45415;-67
2023/10/30 02:52:20;;;;;;;;;3.50;1.25;;;;;13.78;71.77;99381.44;5022076;28;68529;-67
2023/10/30 02:54:45;;;;;;;;;2.25;2.25;;;;;13.78;71.61;99380.63;5058750;28;73063;-66
2023/10/30 02:57:11;;;;;;;;;2.50;1.50;;;;;13.72;71.74;99365.19;5041817;28;46686;-67
2023/10/30 02:59:36;;;;;;;;;3.25;1.50;;;;;13.75;71.44;99370.28;5058824;28;58703;-67
2023/10/30 03:02:02;;;;;;;;;0.25;0.00;;;;;13.74;71.41;99376.47;5043195;28;45403;-67
2023/10/30 03:04:28;;;;;;;;;4.00;3.00;;;;;13.67;71.43;99355.00;5041798;28;45727;-67
2023/10/30 03:06:53;;;;;;;;;3.75;2.00;;;;;13.70;71.81;99369.72;5022504;28;46846;-66
2023/10/30 03:09:19;;;;;;;;;2.50;1.00;;;;;13.68;71.87;99373.28;5065576;28;45589;-67
2023/10/30 03:11:44;;;;;;;;;3.50;2.00;;;;;13.70;71.41;99372.34;5044212;28;53151;-66
2023/10/30 03:14:10;;;;;;;;;4.00;1.00;;;;;13.67;71.47;99365.50;5058626;28;72977;-67
2023/10/30 03:16:35;;;;;;;;;6.75;1.50;;;;;13.67;71.50;99366.34;5029153;28;47276;-67
2023/10/30 03:19:01;;;;;;;;;4.25;1.00;;;;;13.67;71.85;99361.09;5041418;28;45494;-67
2023/10/30 03:21:26;;;;;;;;;5.00;1.00;;;;;13.66;71.64;99350.66;5042086;28;45372;-67
2023/10/30 03:23:51;;;;;;;;;2.00;1.00;;;;;13.66;71.63;99354.13;5057871;28;72242;-68
2023/10/30 03:26:17;;;;;;;;;3.25;1.50;;;;;13.64;71.84;99337.59;5067893;28;56014;-67
2023/10/30 03:28:42;;;;;;;;;3.00;1.00;;;;;13.64;71.77;99337.59;5040330;28;72009;-67
2023/10/30 03:31:09;;;;;;;;;3.25;2.00;;;;;13.62;71.60;99339.50;5042846;28;45498;-67
2023/10/30 03:33:34;;;;;;;;;3.50;2.00;;;;;13.63;72.08;99327.19;5032553;28;45896;-67
2023/10/30 03:36:02;;;;;;;;;4.00;2.00;;;;;13.62;71.98;99331.59;5047228;28;48555;-68
2023/10/30 03:38:27;;;;;;;;;5.25;2.50;;;;;13.65;71.81;99326.16;5044888;28;45466;-68
2023/10/30 03:40:52;;;;;;;;;4.75;2.00;;;;;13.66;71.69;99327.00;5040911;28;45432;-67
2023/10/30 03:43:17;;;;;;;;;4.50;1.75;;;;;13.67;71.92;99323.44;5059452;28;73207;-67
2023/10/30 03:45:44;;;;;;;;;2.00;2.00;;;;;13.67;71.56;99323.44;5023177;28;74444;-67
2023/10/30 03:48:09;;;;;;;;;4.00;2.25;;;;;13.67;72.08;99324.28;5045227;28;45354;-67
2023/10/30 03:50:34;;;;;;;;;2.75;1.00;;;;;13.70;71.90;99335.53;5059230;28;45627;-66
2023/10/30 03:53:00;;;;;;;;;4.25;1.50;;;;;13.70;71.89;99333.75;5039351;28;69734;-66
2023/10/30 03:55:25;;;;;;;;;4.50;1.00;;;;;13.70;71.65;99341.63;5060631;28;74401;-67
2023/10/30 03:57:50;;;;;;;;;4.00;2.00;;;;;13.72;71.73;99331.84;5063115;28;45419;-67
2023/10/30 04:00:16;;;;;;;;;4.00;2.00;;;;;13.75;72.09;99333.47;5063873;28;55133;-68
2023/10/30 04:02:41;;;;;;;;;2.50;1.00;;;;;13.75;71.60;99330.84;5063897;28;45260;-68
2023/10/30 04:05:07;;;;;;;;;3.50;2.00;;;;;13.78;71.38;99333.28;5041726;28;54788;-67
2023/10/30 04:07:32;;;;;;;;;5.50;2.00;;;;;13.79;71.87;99329.69;5049076;28;45514;-67
2023/10/30 04:09:58;;;;;;;;;4.00;2.00;;;;;13.80;71.71;99329.59;5066835;28;45354;-67
2023/10/30 04:12:23;;;;;;;;;2.75;2.00;;;;;13.81;71.75;99327.81;5053336;28;45428;-68
2023/10/30 04:14:49;;;;;;;;;2.75;1.75;;;;;13.82;71.50;99330.34;5063904;28;71453;-68
2023/10/30 04:17:15;;;;;;;;;3.00;1.00;;;;;13.83;71.56;99320.69;5050505;28;45553;-67
2023/10/30 04:19:40;;;;;;;;;6.50;2.00;;;;;13.83;71.49;99316.28;5045357;28;45599;-67
2023/10/30 04:22:06;;;;;;;;;3.25;1.00;;;;;13.83;71.49;99311.00;5024046;28;45771;-67
2023/10/30 04:24:32;;;;;;;;;2.50;2.00;;;;;13.85;71.56;99308.28;5060766;28;74467;-67
2023/10/30 04:26:57;;;;;;;;;5.00;2.00;;;;;13.86;71.29;99309.97;5062818;28;45890;-67
2023/10/30 04:29:22;;;;;;;;;2.50;1.00;;;;;13.85;71.74;99321.44;5066941;28;68300;-67
2023/10/30 04:31:48;;;;;;;;;4.00;1.50;;;;;13.86;71.59;99325.75;5047506;28;66247;-68
2023/10/30 04:34:13;;;;;;;;;3.50;1.00;;;;;13.84;71.18;99331.09;5042605;28;59367;-67
2023/10/30 04:36:38;;;;;;;;;3.00;1.00;;;;;13.86;70.94;99345.00;5046257;28;73178;-67
2023/10/30 04:39:07;;;;;;;;;3.25;1.00;;;;;13.84;71.22;99338.16;5046423;28;64992;-67
2023/10/30 04:41:33;;;;;;;;;1.00;1.00;;;;;13.88;71.11;99339.63;5060443;28;45680;-67
2023/10/30 04:43:58;;;;;;;;;5.25;1.75;;;;;13.88;71.17;99330.91;5061785;28;59232;-67
2023/10/30 04:46:23;;;;;;;;;2.50;2.25;;;;;13.89;71.45;99337.88;5051783;28;73272;-67
2023/10/30 04:48:49;;;;;;;;;3.00;2.00;;;;;13.89;71.29;99338.69;5061124;28;69411;-67
2023/10/30 04:51:14;;;;;;;;;4.00;2.00;;;;;13.89;71.02;99333.44;5060530;28;66510;-67
2023/10/30 04:53:39;;;;;;;;;3.00;2.00;;;;;13.89;71.20;99335.22;5060135;28;75453;-67
2023/10/30 04:56:07;;;;;;;;;4.50;3.00;;;;;13.86;71.36;99331.88;5042331;28;70712;-67
2023/10/30 04:58:32;;;;;;;;;3.75;2.25;;;;;13.89;71.20;99329.97;5027075;28;45661;-67
2023/10/30 05:00:58;;;;;;;;;3.50;2.25;;;;;13.88;70.88;99320.38;5047108;28;68007;-67
2023/10/30 05:03:23;;;;;;;;;3.25;2.50;;;;;13.88;71.28;99309.88;5061309;28;45449;-68
2023/10/30 05:05:48;;;;;;;;;4.00;1.00;;;;;13.89;71.64;99308.94;5040002;28;73075;-67
2023/10/30 05:08:14;;;;;;;;;3.50;2.00;;;;;13.90;71.68;99307.97;5067651;28;68223;-67
2023/10/30 05:10:39;;;;;;;;;1.00;1.00;;;;;13.89;71.40;99307.16;5050479;28;45350;-67
2023/10/30 05:13:05;;;;;;;;;3.75;2.00;;;;;13.90;71.55;99302.72;5063184;28;71505;-67
2023/10/30 05:15:30;;;;;;;;;5.00;2.00;;;;;13.89;71.72;99288.72;5063791;28;45525;-68
2023/10/30 05:17:55;;;;;;;;;1.00;1.00;;;;;13.94;71.95;99291.09;5043249;28;45457;-67
2023/10/30 05:20:21;;;;;;;;;1.00;1.00;;;;;13.92;71.94;99283.28;5057343;28;65393;-67
2023/10/30 05:22:46;;;;;;;;;1.75;1.75;;;;;13.91;71.67;99281.59;5055705;28;45420;-67
2023/10/30 05:25:11;;;;;;;;;1.50;1.50;;;;;13.91;71.78;99275.50;5042559;28;69794;-67
2023/10/30 05:27:37;;;;;;;;;1.00;1.00;;;;;13.93;71.93;99271.81;5043209;28;45481;-67
2023/10/30 05:30:03;;;;;;;;;5.00;1.25;;;;;13.93;71.87;99276.22;5061152;28;45388;-67
2023/10/30 05:32:28;;;;;;;;;1.50;1.50;;;;;13.90;72.14;99266.78;5042688;28;45566;-67
2023/10/30 05:34:53;;;;;;;;;3.50;2.00;;;;;13.91;72.24;99273.69;5042121;28;73311;-68
2023/10/30 05:37:19;;;;;;;;;2.75;1.00;;;;;13.89;72.25;99272.97;5044380;28;45308;-67
2023/10/30 05:39:44;;;;;;;;;1.00;1.00;;;;;13.91;72.23;99270.22;5040914;28;46206;-67
2023/10/30 05:42:10;;;;;;;;;4.00;1.25;;;;;13.89;72.09;99269.50;5041346;28;45350;-67
2023/10/30 05:44:36;;;;;;;;;4.25;1.25;;;;;13.85;72.14;99260.97;5032811;28;68579;-67
2023/10/30 05:47:02;;;;;;;;;3.25;1.25;;;;;13.84;72.40;99262.72;5026920;28;45502;-67
2023/10/30 05:49:27;;;;;;;;;4.00;2.00;;;;;13.83;72.14;99268.09;5044325;28;45509;-68
2023/10/30 05:51:53;;;;;;;;;2.75;2.00;;;;;13.84;72.24;99270.59;5061596;28;46359;-67
2023/10/30 05:54:19;;;;;;;;;3.00;0.00;;;;;13.84;72.65;99278.50;5043107;28;45446;-67
2023/10/30 05:56:44;;;;;;;;;2.00;2.00;;;;;13.83;72.28;99283.88;5022784;28;45456;-67
2023/10/30 05:59:10;;;;;;;;;3.00;0.25;;;;;13.81;72.71;99275.22;5057187;28;67462;-67
2023/10/30 06:01:35;;;;;;;;;3.25;0.00;;;;;13.83;72.74;99268.94;5048520;28;70685;-67
2023/10/30 06:04:00;;;;;;;;;1.25;1.25;;;;;13.81;72.41;99264.69;5078393;27;59250;-68
2023/10/30 06:06:26;;;;;;;;;3.00;1.00;;;;;13.81;72.82;99257.69;5033375;28;45559;-67
2023/10/30 06:08:51;;;;;;;;;4.50;1.50;;;;;13.83;72.43;99257.59;5061006;28;73159;-67
2023/10/30 06:11:17;;;;;;;;;1.00;1.00;;;;;13.84;72.89;99267.16;5050359;28;71659;-67
2023/10/30 06:13:42;;;;;;;;;2.50;1.00;;;;;13.82;72.95;99267.25;5075126;27;45649;-67
2023/10/30 06:16:14;;;;;;;;;5.50;2.00;;;;;13.85;73.05;99280.19;5027057;28;52087;-67
2023/10/30 06:18:39;;;;;;;;;2.75;1.50;;;;;13.84;73.19;99286.38;5048950;28;45448;-68
2023/10/30 06:21:07;;;;;;;;;3.00;1.00;;;;;13.84;73.39;99282.91;5024897;28;77801;-68
2023/10/30 06:23:33;;;;;;;;;2.00;2.00;;;;;13.83;73.30;99281.25;5051998;28;45281;-68
2023/10/30 06:25:58;;;;;;;;;1.75;1.25;;;;;13.83;73.40;99262.84;5060607;28;45450;-67
2023/10/30 06:28:24;;;;;;;;;1.00;1.00;;;;;13.83;73.53;99261.06;5058366;28;73140;-67
2023/10/30 06:30:50;;;;;;;;;4.25;1.50;;;;;13.84;73.46;99256.63;5055432;28;47072;-67
2023/10/30 06:33:15;;;;;;;;;3.00;1.00;;;;;13.83;73.60;99247.91;5061442;28;47181;-67
2023/10/30 06:35:41;;;;;;;;;4.00;2.00;;;;;13.84;73.88;99257.47;5064673;28;45366;-68
2023/10/30 06:38:06;;;;;;;;;2.00;2.00;;;;;13.87;73.74;99269.59;5051368;28;72093;-67
2023/10/30 06:40:31;;;;;;;;;2.00;1.00;;;;;13.89;74.25;99290.53;5031332;28;48064;-67
2023/10/30 06:42:57;;;;;;;;;4.75;2.00;;;;;13.89;74.09;99296.63;5073275;28;45267;-67
2023/10/30 06:45:22;;;;;;;;;3.25;3.00;;;;;13.86;74.31;99295.03;5027053;28;45529;-68
2023/10/30 06:47:47;;;;;;;;;2.00;1.25;;;;;13.87;74.60;99295.88;5057985;28;61522;-69
2023/10/30 06:50:13;;;;;;;;;2.75;2.75;;;;;13.88;74.67;99300.19;5042650;28;69913;-69
2023/10/30 06:52:38;;;;;;;;;5.25;2.00;;;;;13.85;74.93;99295.97;5048216;28;68345;-70
2023/10/30 06:55:04;;;;;;;;;2.00;1.75;;;;;13.85;74.60;99289.88;5066895;28;51519;-68
2023/10/30 06:57:29;;;;;;;;;4.50;2.25;;;;;13.85;74.59;99298.59;5047400;28;45558;-67
2023/10/30 06:59:56;;;;;;;;;2.00;2.00;;;;;13.84;75.15;99282.91;5034434;28;47038;-68
2023/10/30 07:02:21;;;;;;;;;2.50;2.25;;;;;13.90;74.94;99281.69;5048045;28;45956;-68
2023/10/30 07:04:47;;;;;;;;;3.25;2.25;;;;;13.90;75.33;99273.78;5043121;28;45205;-68
2023/10/30 07:07:12;;;;;;;;;3.25;2.00;;;;;13.93;75.12;99265.72;5034992;28;45900;-66
2023/10/30 07:09:37;;;;;;;;;4.00;2.75;;;;;13.96;75.14;99252.38;5037880;28;75508;-71
2023/10/30 07:12:03;;;;;;;;;2.75;2.00;;;;;13.95;75.38;99248.03;5037557;28;71991;-67
2023/10/30 07:14:28;;;;;;;;;1.00;1.00;;;;;13.99;75.17;99245.13;5042317;28;46408;-67
2023/10/30 07:16:54;;;;;;;;;4.25;4.00;;;;;14.02;75.39;99242.31;5020422;28;45574;-66
2023/10/30 07:19:22;;;;;;;;;2.50;2.50;;;;;14.03;75.44;99251.03;5037358;28;71150;-66
2023/10/30 07:21:47;;;;;;;;;3.50;3.00;;;;;14.04;75.50;99244.81;5036447;28;45818;-66
2023/10/30 07:24:13;;;;;;;;;6.00;3.25;;;;;14.09;75.48;99255.03;5033034;28;45473;-66
2023/10/30 07:26:38;;;;;;;;;3.75;2.75;;;;;14.13;75.43;99253.88;5035493;28;55870;-66
2023/10/30 07:29:03;;;;;;;;;4.00;2.00;;;;;14.15;75.54;99252.03;5036299;28;45500;-66
2023/10/30 07:31:29;;;;;;;;;5.00;4.00;;;;;14.14;75.49;99253.78;5037689;28;73164;-71
2023/10/30 07:33:54;;;;;;;;;6.50;3.75;;;;;14.18;75.43;99251.81;5036567;28;49127;-69
2023/10/30 07:36:19;;;;;;;;;3.00;3.00;;;;;14.19;75.36;99241.19;5042082;28;45443;-69
2023/10/30 07:38:44;;;;;;;;;5.00;3.25;;;;;14.18;74.83;99238.66;5019400;28;73573;-67
2023/10/30 07:41:10;;;;;;;;;3.50;3.50;;;;;14.21;75.03;99244.53;5037885;28;48615;-69
2023/10/30 07:43:36;;;;;;;;;4.75;3.75;;;;;14.22;75.25;99234.88;5022741;28;45494;-69
2023/10/30 07:46:01;;;;;;;;;4.75;3.50;;;;;14.23;75.41;99229.50;5039415;28;48667;-69
2023/10/30 07:48:27;;;;;;;;;4.50;4.00;;;;;14.29;75.69;99243.19;5037674;28;45371;-68
2023/10/30 07:50:53;;;;;;;;;6.00;5.00;;;;;14.30;75.02;99245.72;5035371;28;45436;-73
2023/10/30 07:53:18;;;;;;;;;7.50;4.75;;;;;14.34;75.16;99235.84;5038110;28;45450;-74
2023/10/30 07:55:45;;;;;;;;;9.00;4.50;;;;;14.34;74.69;99231.44;5036134;28;45500;-73
2023/10/30 07:58:12;;;;;;;;;5.00;3.25;;;;;14.30;74.73;99232.56;5037814;28;46572;-76
2023/10/30 08:00:38;;;;;;;;;4.50;4.00;;;;;14.31;75.10;99251.84;5038586;28;45347;-74
2023/10/30 08:03:05;;;;;;;;;7.25;5.00;;;;;14.29;75.25;99245.81;5044097;28;45505;-74
2023/10/30 08:05:32;;;;;;;;;4.00;4.00;;;;;14.26;75.28;99223.22;5050031;28;45464;-72
2023/10/30 08:07:57;;;;;;;;;7.00;5.50;;;;;14.33;75.25;99226.28;5057266;28;45573;-68
2023/10/30 08:10:22;;;;;;;;;8.50;8.00;;;;;14.32;75.24;99228.03;5057947;28;73362;-68
2023/10/30 08:12:47;;;;;;;;;4.75;4.50;;;;;14.36;75.21;99231.31;5057430;28;69460;-70
2023/10/30 08:15:13;;;;;;;;;8.75;5.75;;;;;14.38;75.58;99218.91;5057970;28;62333;-72
2023/10/30 08:17:38;;;;;;;;;6.25;4.50;;;;;14.37;75.66;99212.78;5023259;28;45321;-72
2023/10/30 08:20:04;;;;;;;;;6.25;5.00;;;;;14.38;75.37;99218.91;5061064;28;73285;-69
2023/10/30 08:22:30;;;;;;;;;7.25;5.00;;;;;14.39;75.29;99210.91;5040640;28;45414;-74
2023/10/30 08:24:55;;;;;;;;;7.00;4.75;;;;;14.39;75.51;99217.97;5024661;28;45738;-72
2023/10/30 08:27:21;;;;;;;;;8.75;6.00;;;;;14.42;75.37;99236.19;5039422;28;45276;-65
2023/10/30 08:29:46;;;;;;;;;11.00;6.00;;;;;14.42;75.35;99226.50;5058467;28;45329;-69
2023/10/30 08:32:13;;;;;;;;;7.25;6.00;;;;;14.41;75.70;99239.75;5038391;28;45605;-68
2023/10/30 08:34:38;;;;;;;;;8.25;6.25;;;;;14.43;75.67;99243.16;5040547;28;45341;-68
2023/10/30 08:37:03;;;;;;;;;6.00;6.00;;;;;14.46;75.97;99235.03;5062653;28;45366;-68
2023/10/30 08:39:29;;;;;;;;;5.25;5.25;;;;;14.47;75.76;99215.66;5056290;28;62414;-68
2023/10/30 08:41:54;;;;;;;;;10.75;6.00;;;;;14.51;76.04;99225.03;5036133;28;45438;-70
2023/10/30 08:44:19;;;;;;;;;7.50;5.50;;;;;14.53;76.17;99219.66;5039397;28;73070;-69
2023/10/30 08:46:45;;;;;;;;;6.00;4.25;;;;;14.56;76.03;99217.66;5067309;28;74558;-67
2023/10/30 08:49:10;;;;;;;;;5.00;4.00;;;;;14.58;75.81;99215.81;5068103;28;56096;-69
2023/10/30 08:51:43;;;;;;;;;8.00;4.50;;;;;14.62;76.06;99211.16;5045406;28;49188;-69
2023/10/30 08:54:08;;;;;;;;;4.75;3.00;;;;;14.66;75.92;99219.69;5036350;28;45542;-68
2023/10/30 08:56:34;;;;;;;;;5.50;5.50;;;;;14.67;75.71;99200.34;5047447;28;46379;-67
2023/10/30 08:58:59;;;;;;;;;3.75;3.75;;;;;14.71;75.54;99202.63;5071873;28;67290;-67
2023/10/30 09:01:26;;;;;;;;;3.50;3.00;;;;;14.75;75.48;99198.84;5054789;28;45802;-67
2023/10/30 09:03:52;;;;;;;;;3.75;2.50;;;;;14.78;75.73;99201.28;5054404;28;46085;-70
2023/10/30 09:06:18;;;;;;;;;2.75;2.00;;;;;14.79;75.44;99204.75;5045722;28;47146;-69
2023/10/30 09:08:43;;;;;;;;;2.50;2.00;;;;;14.81;75.26;99198.41;5058777;28;45398;-68
2023/10/30 09:11:08;;;;;;;;;2.75;2.50;;;;;14.81;75.26;99200.22;5063132;28;45344;-67
2023/10/30 09:13:34;;;;;;;;;3.00;1.75;;;;;14.81;75.38;99189.69;5039015;28;73041;-67
2023/10/30 09:15:59;;;;;;;;;4.75;3.00;;;;;14.83;74.70;99185.16;5065888;28;46198;-67
2023/10/30 09:18:24;;;;;;;;;4.25;4.25;;;;;14.82;74.76;99186.13;5034415;28;45385;-69
2023/10/30 09:20:50;;;;;;;;;6.25;5.50;;;;;14.79;75.18;99171.34;5067427;28;45318;-68
2023/10/30 09:23:15;;;;;;;;;4.50;4.25;;;;;14.82;75.05;99186.13;5053688;28;45390;-69
2023/10/30 09:25:41;;;;;;;;;5.00;3.00;;;;;14.84;74.63;99196.50;5027468;28;74325;-67
2023/10/30 09:28:06;;;;;;;;;7.00;5.75;;;;;14.83;74.86;99190.41;5066517;28;48465;-68
2023/10/30 09:30:31;;;;;;;;;8.50;6.00;;;;;14.83;75.15;99197.47;5050363;28;45326;-68
2023/10/30 09:32:58;;;;;;;;;6.00;5.00;;;;;14.83;75.06;99205.38;5040872;28;59900;-68
2023/10/30 09:35:29;;;;;;;;;8.00;6.00;;;;;14.84;75.01;99207.06;5057687;28;46218;-67
2023/10/30 09:37:54;;;;;;;;;7.25;5.00;;;;;14.84;75.00;99201.78;5050413;28;47157;-69
2023/10/30 09:40:22;;;;;;;;;6.50;5.75;;;;;14.87;74.81;99206.84;5055136;28;45534;-68
2023/10/30 09:42:53;;;;;;;;;5.75;5.00;;;;;14.87;74.67;99206.84;5036938;28;45675;-68
2023/10/30 09:45:22;;;;;;;;;8.00;4.50;;;;;14.86;75.17;99195.47;5062466;28;45489;-69
2023/10/30 09:47:47;;;;;;;;;5.75;5.00;;;;;14.87;75.22;99205.03;5035638;28;45558;-68
2023/10/30 09:50:13;;;;;;;;;10.75;6.25;;;;;14.87;75.04;99204.22;5025186;28;45816;-68
2023/10/30 09:52:39;;;;;;;;;6.00;6.00;;;;;14.88;75.22;99201.47;5027963;28;45921;-69
2023/10/30 09:55:09;;;;;;;;;9.00;6.00;;;;;14.88;75.23;99201.47;5032111;28;45528;-69
2023/10/30 09:57:35;;;;;;;;;8.50;6.00;;;;;14.90;75.38;99206.66;5044085;28;45408;-68
2023/10/30 10:00:00;;;;;;;;;8.25;5.00;;;;;14.89;75.42;99205.81;5061241;28;45439;-68
2023/10/30 10:02:25;;;;;;;;;7.00;5.50;;;;;14.88;75.39;99198.84;5062278;28;45522;-69
2023/10/30 10:04:51;;;;;;;;;4.50;4.50;;;;;14.89;75.51;99197.03;5042475;28;75335;-68
2023/10/30 10:07:18;;;;;;;;;4.00;4.00;;;;;14.89;75.77;99189.13;5041201;28;45372;-68
2023/10/30 10:10:00;;;;;;;;;5.00;4.75;;;;;14.91;75.40;99179.34;5059968;28;68397;-69
2023/10/30 10:12:26;;;;;;;;;3.00;3.00;;;;;14.91;75.53;99168.81;5068257;27;45406;-68
2023/10/30 10:14:51;;;;;;;;;4.25;4.25;;;;;14.87;75.22;99156.81;5040209;28;49310;-68
2023/10/30 10:17:16;;;;;;;;;4.50;3.00;;;;;14.89;75.55;99163.66;5063774;28;70849;-69
2023/10/30 10:19:46;;;;;;;;;4.25;4.25;;;;;14.92;75.53;99154.69;5047700;28;45321;-69
2023/10/30 10:22:25;;;;;;;;;8.75;5.00;;;;;14.92;75.37;99157.31;5033680;28;45321;-69
2023/10/30 10:24:52;;;;;;;;;6.75;5.00;;;;;14.94;75.43;99145.75;5029652;28;48376;-69
2023/10/30 10:27:19;;;;;;;;;5.25;5.25;;;;;14.96;75.51;99142.97;5043124;28;46005;-69
2023/10/30 10:29:44;;;;;;;;;7.00;6.00;;;;;14.97;75.31;99140.25;5053345;28;45386;-70
2023/10/30 10:32:11;;;;;;;;;5.75;5.50;;;;;14.98;75.84;99139.31;5040488;28;59209;-70
2023/10/30 10:34:37;;;;;;;;;7.25;4.50;;;;;14.99;75.54;99135.69;5059594;28;46411;-71
2023/10/30 10:37:02;;;;;;;;;7.75;6.00;;;;;15.02;75.94;99134.66;5048431;28;45290;-68
2023/10/30 10:39:44;;;;;;;;;6.00;5.00;;;;;15.04;75.82;99131.91;5060705;28;45279;-71
2023/10/30 10:42:10;;;;;;;;;8.25;7.00;;;;;15.07;75.96;99118.50;5062343;28;45264;-69
2023/10/30 10:44:35;;;;;;;;;10.50;7.00;;;;;15.09;76.02;99106.91;5040382;28;75578;-67
2023/10/30 10:47:00;;;;;;;;;13.00;9.75;;;;;15.17;75.88;99115.13;5057222;28;72174;-68
2023/10/30 10:49:26;;;;;;;;;8.75;6.75;;;;;15.19;75.90;99097.41;5043422;28;68604;-68
2023/10/30 10:51:52;;;;;;;;;6.00;6.00;;;;;15.23;75.83;99083.97;5048271;28;46108;-68
2023/10/30 10:54:24;;;;;;;;;6.75;6.50;;;;;15.26;75.50;99081.97;5044733;28;45734;-68
2023/10/30 10:56:52;;;;;;;;;8.75;8.75;;;;;15.29;75.80;99078.28;5027790;28;45351;-69
2023/10/30 10:59:21;;;;;;;;;9.50;7.00;;;;;15.30;75.74;99072.91;5064426;28;45389;-69
2023/10/30 11:01:49;;;;;;;;;9.00;7.00;;;;;15.35;75.89;99072.53;5050365;28;45562;-69
2023/10/30 11:04:16;;;;;;;;;4.25;4.00;;;;;15.38;75.62;99075.78;5059906;28;49807;-68
2023/10/30 11:06:46;;;;;;;;;6.25;5.00;;;;;15.42;75.80;99072.94;5071155;27;45507;-69
2023/10/30 11:09:21;;;;;;;;;8.00;6.50;;;;;15.46;75.28;99063.88;5037944;28;45565;-68
2023/10/30 11:11:47;;;;;;;;;8.00;6.50;;;;;15.54;75.42;99066.75;5046939;28;45524;-70
2023/10/30 11:14:35;;;;;;;;;9.00;7.00;;;;;15.57;75.61;99063.91;5067876;28;46134;-69
2023/10/30 11:17:02;;;;;;;;;10.25;7.50;;;;;15.60;75.57;99073.38;5054746;28;45271;-69
2023/10/30 11:19:29;;;;;;;;;7.50;7.00;;;;;15.60;75.13;99070.72;5050936;28;45312;-68
2023/10/30 11:21:55;;;;;;;;;9.00;8.00;;;;;15.60;75.21;99073.38;5031819;28;45597;-69
2023/10/30 11:24:41;;;;;;;;;8.00;7.00;;;;;15.57;75.35;99062.09;5049072;28;46300;-68
2023/10/30 11:27:25;;;;;;;;;9.75;8.75;;;;;15.59;75.34;99059.34;5058897;28;45560;-69